João Souza

Olheiro - Bragantino
4 Dez 2027
Sábado
Processo

Personalidade

Adaptabilidade (10) Ambição (10) Controvérsia (6) Lealdade (4) Pressão (5) Profissionalismo (11) Espírito Esportivo (18) Temperamento (10)

Perfil

Estilo de Treinamento Democrático
Licença Nacional A
Determinação 9
Gestão de Pessoas 6
Motivação 5
Disciplina 14
Satisfação no Trabalho
100%
Fadiga
0%
Função Olheiro
Salário 87.1K p/s
Contrato 14.03.2030

Desempenho

Comportamento Bom
Eficácia do Treinamento
50%
Desenvolvimento do Jogador
25%
Prevenção de Lesões
35%
Implementação Tática
45%

Eventos Recentes

Participou de uma reunião de recrutamento 7d atrás
Participou de uma reunião de recrutamento 14d atrás
Participou de uma reunião de recrutamento 21d atrás
Participou de uma reunião de recrutamento 28d atrás
Participou de uma reunião de recrutamento 35d atrás
Participou de uma reunião de recrutamento 42d atrás
Participou de uma reunião de recrutamento 49d atrás
Participou de uma reunião de recrutamento 56d atrás

Monitorando agora

161
Jogador Clube Status Habilidade Confiança Observado Última observação Último voto
Juan Manuel Villalba Boca Juniors Ativo 115 / 125 40% 1 01.12.2027 -
Aiden Hezarkhani Real Salt Lake Ativo 92 / 110 40% 1 01.12.2027 -
Nahuel Leivas Montevideo City Torque Ativo 100 / 103 40% 1 01.12.2027 -
Nordi Mukiele Sunderland Ativo 147 / 134 40% 1 31.05.2027 -
Milan van Ewijk Coventry City Ativo 132 / 141 40% 1 31.05.2027 -
Imrân Louza Watford Ativo 137 / 145 40% 1 31.05.2027 -
Dango Ouattara Brentford Ativo 153 / 137 40% 1 29.05.2027 -
Marquinhos Spartak Moscow Ativo 134 / 132 40% 1 29.05.2027 -
Bitello Empoli Ativo 146 / 129 40% 4 28.05.2027 -
Carl Rushworth Coventry City Perdido 136 / 152 40% 6 28.05.2027 -
Francesco D'Alterio Ternana Ativo 103 / 96 40% 1 28.05.2027 -
Josh Keeley Luton Town Ativo 126 / 131 40% 6 27.05.2027 -
Murphy Cooper Plymouth Argyle Ativo 106 / 112 40% 3 27.05.2027 -
Radek Vítek Middlesbrough Ativo 146 / 140 40% 3 24.05.2027 -
Jakub Surovčík Sparta Prague Ativo 118 / 118 40% 2 24.05.2027 -
Williams Mahlangu SuperSport United Ativo 120 / 110 40% 3 24.05.2027 -
Kostantis Tzolakis Hull City Ativo 147 / 156 40% 4 23.05.2027 -
Ludovico Del Sorbo Sorrento Ativo 104 / 116 40% 1 23.05.2027 -
Chemsdine Talbi Sunderland Ativo 152 / 141 40% 1 23.05.2027 -
Loum Tchaouna Coventry City Ativo 133 / 135 40% 1 23.05.2027 -
Yankuba Minteh Brighton Ativo 161 / 152 40% 2 21.05.2027 -
Thiago Almada Fiorentina Ativo 150 / 156 40% 1 21.05.2027 -
Brennan Johnson Everton Ativo 151 / 158 40% 2 19.05.2027 -
Kevin Schade Brentford Ativo 154 / 148 40% 3 19.05.2027 -
Ethan Galbraith Swansea City Ativo 132 / 122 40% 1 19.05.2027 -
Ronald Swansea City Ativo 135 / 119 40% 2 18.05.2027 -
Julio Enciso Ipswich Town Ativo 145 / 138 40% 1 18.05.2027 -
André Wolverhampton Ativo 141 / 143 40% 5 14.05.2027 -
Marco Carnesecchi Torino Ativo 154 / 164 40% 4 14.05.2027 -
Koki Saito Queens Park Rangers Ativo 130 / 118 40% 2 14.05.2027 -
Matteo Rizzo Cosenza Ativo 101 / 100 40% 2 14.05.2027 -
James Trafford Leeds United Ativo 147 / 139 40% 3 12.05.2027 -
Luís Henrique Inter Ativo 140 / 143 40% 3 12.05.2027 -
Pedro Porro Tottenham Ativo 151 / 140 40% 1 12.05.2027 -
Jacob Ramsey Newcastle United Ativo 159 / 163 40% 1 10.05.2027 -
Ruslan Neshcheret Dynamo Kyiv Ativo 116 / 138 40% 5 09.05.2027 -
George Wickens Lincoln City Ativo 125 / 105 40% 2 06.05.2027 -
Anatolii Trubin Tottenham Ativo 150 / 147 40% 1 06.05.2027 -
Sergio Barlocco Trento Ativo 112 / 108 40% 1 05.05.2027 -
Arthur Beroe Ativo 126 / 121 40% 2 03.05.2027 -
Denys Ihnatenko Livyi Bereh Ativo 102 / 109 40% 1 30.04.2027 -
Samuele Vitale Ascoli Ativo 109 / 120 40% 1 27.04.2027 -
Fathy Tarek Masr El Makasa Ativo 114 / 118 40% 1 27.04.2027 -
Kevin Fulham Ativo 149 / 145 40% 1 25.04.2027 -
Đorđe Petrović Bournemouth Ativo 146 / 150 40% 2 24.04.2027 -
Maduka Okoye Udinese Ativo 140 / 132 40% 1 24.04.2027 -
Fran Vieites Exeter City Ativo 129 / 113 40% 1 24.04.2027 -
Filip Marschall Stevenage Ativo 105 / 102 40% 2 22.04.2027 -
Gianluca Saro Foggia Ativo 110 / 113 40% 1 18.04.2027 -
Igor Nikić Lech Ativo 120 / 117 40% 1 17.04.2027 -
Pedro Henrique Shakhtar Ativo 130 / 142 40% 2 15.04.2027 -
Elia Boseggia Novara Ativo 115 / 119 40% 1 09.04.2027 -
Samu Maccabi Netanya Ativo 118 / 109 40% 1 08.04.2027 -
Rumarn Burrell Queens Park Rangers Ativo 126 / 114 40% 2 07.04.2027 -
Tyrese Campbell Sheffield United Ativo 123 / 130 40% 1 07.04.2027 -
Jack Rudoni Coventry City Ativo 129 / 135 40% 1 07.04.2027 -
Lucas Pires Burnley Ativo 130 / 132 40% 1 05.04.2027 -
Serginho Al Wasl Ativo 140 / 130 40% 1 05.04.2027 -
Francis Amuzu Grêmio Ativo 130 / 125 40% 4 04.04.2027 -
Juan Diego Castillo Vitoria Guimaraes Ativo 129 / 121 40% 2 30.03.2027 -
Borja Sainz Porto Ativo 147 / 149 40% 8 22.03.2027 -
Mario Dorgeles Braga Ativo 144 / 128 40% 2 22.03.2027 -
Iván Fresneda Sporting CP Ativo 137 / 154 40% 2 22.03.2027 -
Zach Hemming Chesterfield Ativo 102 / 109 40% 2 21.03.2027 -
Alberto Costa Porto Ativo 149 / 132 40% 2 18.03.2027 -
Maximiliano Araújo Sporting CP Ativo 149 / 135 40% 4 18.03.2027 -
Christian Krasnodar Ativo 134 / 147 40% 5 18.03.2027 -
Bento Lokomotiv Moscow Ativo 143 / 143 40% 3 15.03.2027 -
Christian Joel Sánchez Leiria Ativo 109 / 99 40% 1 15.03.2027 -
Gianluca Prestianni Benfica Ativo 131 / 137 40% 6 13.03.2027 -
Santi García Gil Vicente Ativo 129 / 118 40% 3 13.03.2027 -
Anthony Patterson Wrexham Ativo 141 / 138 40% 2 13.03.2027 -
Finn Azaz Southampton Ativo 134 / 114 40% 1 13.03.2027 -
Matheus Gonçalves Al-Ahli Ativo 131 / 134 40% 3 11.03.2027 -
Geny Sporting CP Ativo 151 / 131 40% 4 04.03.2027 -
Mads Hermansen West Ham United Ativo 137 / 147 40% 2 02.03.2027 -
Samuel Soares Benfica Ativo 134 / 123 40% 3 28.02.2027 -
Lukas Jensen Millwall Ativo 125 / 130 40% 1 28.02.2027 -
Lorenzo Palmisani Frosinone Ativo 126 / 125 40% 1 26.02.2027 -
Lucas Cañizares Tondela Ativo 104 / 104 40% 1 26.02.2027 -
Yanis Begraoui Estoril Praia Ativo 140 / 138 40% 9 24.02.2027 -
Gabriel Brazão Santos Ativo 143 / 139 40% 2 22.02.2027 -
Thiago Couto São Paulo Ativo 109 / 121 40% 1 22.02.2027 -
Antonio Gomis Vizela Ativo 127 / 122 40% 2 18.02.2027 -
Michael Cooper Sheffield United Ativo 129 / 115 40% 1 17.02.2027 -
Petar Stanić Ludogorets Ativo 128 / 119 40% 1 14.02.2027 -
Cezary Miszta Rio Ave Ativo 123 / 137 40% 3 12.02.2027 -
Andreas Jungdal Westerlo Ativo 116 / 129 40% 1 10.02.2027 -
Grégoire Coudert Burnley Ativo 120 / 118 40% 1 05.02.2027 -
Alexandro Bernabei Internacional Ativo 142 / 141 40% 2 03.02.2027 -
Jhon Jhon Zenit Ativo 126 / 148 40% 2 03.02.2027 -
William Gomes Porto Ativo 132 / 154 40% 1 03.02.2027 -
Enzo Loiodice KAA Gent Ativo 131 / 124 40% 1 25.01.2027 -
Dinis Pinto Moreirense Ativo 139 / 115 40% 3 20.01.2027 -
Roberto Fernández Braga Ativo 153 / 150 40% 3 20.01.2027 -
Nuno Moreira Vasco da Gama Ativo 131 / 126 40% 1 06.01.2027 -
Rodrigo Pinheiro Famalicao Ativo 129 / 120 40% 1 06.01.2027 -
Abraham Marcus Estrela da Amadora Ativo 120 / 109 40% 2 05.01.2027 -
Diego Lainez Tigres Ativo 123 / 119 40% 1 29.11.2026 -
Welington Southampton Ativo 138 / 143 40% 2 28.11.2026 -
Alan Benfica Ativo 140 / 119 40% 1 28.11.2026 -
Kaio Eduardo Basel Ativo 117 / 120 40% 5 26.11.2026 -
Tomás Araújo Benfica Ativo 135 / 134 40% 2 26.11.2026 -
Diego Costa Krasnodar Ativo 142 / 151 40% 2 26.11.2026 -
Dilan Godoy Vélez Ativo 106 / 112 40% 4 24.11.2026 -
Mathis Jangeal Famalicao Ativo 104 / 122 40% 1 24.11.2026 -
Mihailo Ivanović Millwall Ativo 114 / 114 40% 2 22.11.2026 -
Léo Jacó Santa Clara Ativo 101 / 105 40% 3 21.11.2026 -
Samuel Lino Flamengo Ativo 133 / 127 40% 2 21.11.2026 -
Gabriel Pirani San Diego Football Club Ativo 130 / 122 40% 2 21.11.2026 -
Sindre Walle Egeli Nottingham Forest Ativo 122 / 136 40% 1 21.11.2026 -
Matías Contrera Northampton Town Ativo 109 / 103 40% 2 18.11.2026 -
Oumar Camara Vitoria Guimaraes Ativo 125 / 126 40% 2 16.11.2026 -
André Clovis Chaves Ativo 121 / 131 40% 1 16.11.2026 -
Ole Pohlmann Rio Ave Ativo 116 / 115 40% 1 13.11.2026 -
Adrián Martínez Racing Club Ativo 134 / 133 40% 2 11.11.2026 -
Talles Magno New York City Ativo 120 / 117 40% 2 10.11.2026 -
Hamilton Ativo 120 / 119 40% 1 10.11.2026 -
Rafael Navarro St. Louis CITY SC Ativo 130 / 114 40% 1 10.11.2026 -
Toni Tamarit Alverca Ativo 110 / 118 40% 4 03.11.2026 -
Arthur Gomes Dinamo Moscow Ativo 112 / 115 40% 1 02.11.2026 -
Gustavo Silva Vitoria Guimaraes Ativo 113 / 138 40% 1 29.10.2026 -
Mohammed Bouldini Académico de Viseu Ativo 124 / 114 40% 1 29.10.2026 -
Luis Suárez PSV Ativo 163 / 138 40% 1 29.10.2026 -
André Luiz Sporting Kansas City Ativo 128 / 109 40% 2 28.10.2026 -
Gabriel Veron Porto Ativo 123 / 142 40% 1 24.10.2026 -
Ángel Correa River Plate Ativo 141 / 137 40% 2 23.10.2026 -
Carlos Vinícius Grêmio Ativo 136 / 136 40% 1 23.10.2026 -
Guilherme Houston Dynamo Ativo 128 / 116 40% 1 19.10.2026 -
Alex Luna Instituto Ativo 129 / 120 40% 1 17.10.2026 -
Mauro Júnior PSV Ativo 137 / 155 40% 1 16.10.2026 -
Jakub Kiwior Porto Ativo 165 / 173 40% 1 14.10.2026 -
Joaquim Tigres Ativo 123 / 116 40% 1 12.10.2026 -
Mathias De Amorim Famalicao Ativo 124 / 137 40% 1 12.10.2026 -
Abner Vinicius Olympique Lyonnais Ativo 147 / 141 40% 1 12.10.2026 -
Deivid Washington RC Strasbourg Ativo 125 / 133 40% 3 10.10.2026 -
Xavier Biscayzacú Sporting CP Ativo 126 / 145 40% 3 10.10.2026 -
Matías Fernández-Pardo Newcastle United Ativo 133 / 132 40% 1 09.10.2026 -
Bright Arrey-Mbi Braga Ativo 131 / 121 40% 1 07.10.2026 -
Alan Varela Porto Ativo 134 / 159 40% 2 01.10.2026 -
Antony Portland Timbers Ativo 118 / 115 40% 2 01.10.2026 -
Yoshan Valois Lanús Ativo 122 / 117 40% 2 25.09.2026 -
Alexey Batrakov Galatasaray Ativo 146 / 153 40% 1 25.09.2026 -
Stefanos Tzimas Brighton Ativo 129 / 132 40% 1 24.09.2026 -
João Gomes Aston Villa Ativo 145 / 124 40% 2 23.09.2026 -
Francisco Moura Penafiel Ativo 129 / 138 40% 1 22.09.2026 -
Gabriel Pereira FC Copenhagen Ativo 139 / 123 40% 1 19.09.2026 -
Matheus Alves Zenit Ativo 129 / 121 40% 1 17.09.2026 -
Helinho Toluca Ativo 124 / 133 40% 1 16.09.2026 -
Agustín Ruberto River Plate Ativo 115 / 116 40% 3 12.09.2026 -
Cristian Medina Botafogo Ativo 121 / 139 40% 1 12.09.2026 -
Zeno Debast Sporting CP Ativo 148 / 136 40% 1 07.09.2026 -
Beraldo Paris Saint-Germain Ativo 141 / 133 40% 1 07.09.2026 -
Luciano Inverso Rentistas Ativo 111 / 127 40% 1 05.09.2026 -
Tiziano Dornell Almagro Ativo 108 / 114 40% 1 05.09.2026 -
Mathys Tel Stade Rennais Ativo 138 / 161 40% 1 31.08.2026 -
Wendell Livyi Bereh Ativo 96 / 108 40% 1 18.08.2026 -
Gabriel Silva Sporting CP Ativo 95 / 112 40% 1 09.08.2026 -
João Simões Sporting CP Ativo 117 / 137 40% 1 08.08.2026 -
Thiago Ponce Rosario Central Ativo 92 / 104 40% 1 06.08.2026 -
Max Scholze Estrela da Amadora Ativo 100 / 106 40% 1 02.08.2026 -